createdAt,value
2018-02-20T00:01:28.384Z,23.38
2018-02-20T00:03:55.939Z,24.55
2018-02-20T00:06:23.501Z,26.08
2018-02-20T00:08:51.069Z,27.00
2018-02-20T00:11:18.603Z,24.95
2018-02-20T00:13:46.929Z,26.98
2018-02-20T00:16:14.504Z,24.42
2018-02-20T00:18:42.058Z,24.30
2018-02-20T00:21:09.629Z,24.20
2018-02-20T00:23:37.169Z,27.27
2018-02-20T00:26:04.725Z,24.23
2018-02-20T00:28:32.260Z,24.10
2018-02-20T00:30:59.821Z,24.30
2018-02-20T00:33:27.362Z,24.80
2018-02-20T00:35:55.689Z,24.85
2018-02-20T00:38:23.240Z,23.38
2018-02-20T00:40:50.777Z,24.20
2018-02-20T00:43:18.344Z,26.40
2018-02-20T00:45:45.890Z,23.90
2018-02-20T00:48:14.221Z,23.83
2018-02-20T00:50:41.784Z,24.87
2018-02-20T00:53:09.341Z,24.02
2018-02-20T00:55:36.895Z,24.20
2018-02-20T00:58:04.458Z,24.65
2018-02-20T01:00:31.997Z,23.75
2018-02-20T01:02:59.550Z,25.45
2018-02-20T01:05:27.098Z,25.48
2018-02-20T01:07:54.666Z,27.20
2018-02-20T01:10:22.213Z,25.25
2018-02-20T01:12:50.550Z,23.83
2018-02-20T01:15:18.092Z,24.05
2018-02-20T01:17:45.683Z,24.48
2018-02-20T01:20:13.218Z,24.70
2018-02-20T01:22:40.772Z,25.27
2018-02-20T01:25:08.332Z,23.83
2018-02-20T01:27:35.876Z,23.98
2018-02-20T01:30:03.436Z,26.90
2018-02-20T01:32:30.989Z,26.08
2018-02-20T01:34:58.559Z,26.05
2018-02-20T01:37:26.105Z,25.62
2018-02-20T01:39:53.657Z,25.90
2018-02-20T01:42:21.193Z,26.77
2018-02-20T01:44:49.517Z,23.30
2018-02-20T01:47:17.067Z,24.55
2018-02-20T01:49:44.648Z,26.02
2018-02-20T01:52:12.187Z,26.35
2018-02-20T01:54:39.738Z,27.15
2018-02-20T01:57:07.307Z,26.80
2018-02-20T01:59:34.840Z,26.12
2018-02-20T02:02:03.168Z,27.37
2018-02-20T02:04:30.703Z,25.20
2018-02-20T02:06:58.261Z,27.20
2018-02-20T02:09:25.808Z,26.17
2018-02-20T02:11:53.491Z,24.25
2018-02-20T02:14:21.038Z,24.95
2018-02-20T02:16:48.596Z,27.77
2018-02-20T02:19:16.144Z,26.77
2018-02-20T02:21:43.696Z,26.35
2018-02-20T02:24:12.039Z,23.33
2018-02-20T02:26:39.613Z,27.27
2018-02-20T02:29:07.152Z,27.50
2018-02-20T02:31:34.689Z,25.23
2018-02-20T02:34:02.256Z,25.60
2018-02-20T02:36:29.786Z,27.25
2018-02-20T02:38:57.344Z,30.37
2018-02-20T02:41:24.906Z,24.20
2018-02-20T02:43:52.470Z,27.15
2018-02-20T02:46:20.014Z,28.23
2018-02-20T02:48:48.338Z,26.67
2018-02-20T02:51:15.874Z,27.08
2018-02-20T02:53:43.429Z,26.98
2018-02-20T02:56:10.964Z,26.95
2018-02-20T02:58:39.284Z,28.23
2018-02-20T03:01:06.820Z,28.98
2018-02-20T03:03:34.378Z,29.42
2018-02-20T03:06:01.930Z,25.98
2018-02-20T03:08:30.254Z,28.52
2018-02-20T03:10:57.795Z,29.37
2018-02-20T03:13:25.344Z,27.62
2018-02-20T03:15:52.888Z,27.83
2018-02-20T03:18:20.448Z,28.90
2018-02-20T03:20:48.780Z,28.98
2018-02-20T03:23:16.330Z,29.75
2018-02-20T03:25:43.888Z,27.08
2018-02-20T03:28:11.424Z,28.33
2018-02-20T03:30:39.001Z,26.87
2018-02-20T03:33:06.569Z,30.25
2018-02-20T03:35:34.113Z,28.85
2018-02-20T03:38:01.672Z,26.98
2018-02-20T03:40:29.320Z,29.10
2018-02-20T03:42:56.896Z,27.90
2018-02-20T03:45:24.444Z,28.92
2018-02-20T03:47:52.011Z,26.73
2018-02-20T03:50:19.569Z,28.65
2018-02-20T03:52:47.128Z,27.13
2018-02-20T03:55:14.696Z,28.30
2018-02-20T03:57:42.232Z,30.30
2018-02-20T04:00:09.804Z,28.08
2018-02-20T04:02:37.366Z,26.80
2018-02-20T04:05:04.914Z,29.27
2018-02-20T04:07:32.472Z,24.63
2018-02-20T04:10:00.015Z,25.40
2018-02-20T04:12:28.336Z,28.48
2018-02-20T04:14:55.874Z,24.95
2018-02-20T04:17:23.433Z,26.58
2018-02-20T04:19:51.036Z,24.87
2018-02-20T04:22:18.624Z,26.80
2018-02-20T04:24:46.929Z,25.50
2018-02-20T04:27:14.473Z,24.77
2018-02-20T04:29:42.805Z,25.35
2018-02-20T04:32:10.336Z,25.48
2018-02-20T04:34:37.912Z,28.42
2018-02-20T04:37:05.468Z,25.25
2018-02-20T04:39:33.029Z,24.48
2018-02-20T04:42:00.571Z,22.98
2018-02-20T04:44:28.126Z,23.90
2018-02-20T04:46:55.663Z,24.25
2018-02-20T04:49:23.230Z,26.30
2018-02-20T04:51:51.530Z,23.52
2018-02-20T04:54:19.098Z,22.55
2018-02-20T04:56:46.633Z,25.12
2018-02-20T04:59:14.192Z,23.23
2018-02-20T05:01:41.798Z,24.25
2018-02-20T05:04:09.405Z,26.95
2018-02-20T05:06:37.706Z,25.60
2018-02-20T05:09:05.260Z,24.17
2018-02-20T05:11:32.811Z,25.33
2018-02-20T05:14:00.368Z,27.08
2018-02-20T05:16:27.928Z,26.48
2018-02-20T05:18:55.488Z,28.23
2018-02-20T05:21:23.045Z,28.15
2018-02-20T05:23:50.594Z,26.75
2018-02-20T05:26:18.145Z,24.02
2018-02-20T05:28:47.308Z,27.05
2018-02-20T05:31:14.864Z,28.90
2018-02-20T05:33:42.432Z,27.23
2018-02-20T05:36:10.019Z,26.20
2018-02-20T05:38:38.332Z,26.98
2018-02-20T05:41:05.910Z,27.45
2018-02-20T05:43:33.468Z,27.00
2018-02-20T05:46:01.005Z,29.50
2018-02-20T05:48:28.569Z,25.77
2018-02-20T05:50:56.121Z,28.23
2018-02-20T05:53:23.685Z,25.02
2018-02-20T05:55:51.214Z,26.48
2018-02-20T05:58:18.793Z,27.73
2018-02-20T06:00:47.110Z,26.70
2018-02-20T06:03:14.672Z,24.17
2018-02-20T06:05:42.259Z,27.23
2018-02-20T06:08:09.826Z,25.92
2018-02-20T06:10:37.361Z,24.73
2018-02-20T06:13:04.926Z,28.52
2018-02-20T06:15:32.497Z,24.52
2018-02-20T06:18:00.038Z,24.37
2018-02-20T06:20:27.616Z,26.73
2018-02-20T06:22:55.172Z,25.98
2018-02-20T06:25:22.729Z,26.98
2018-02-20T06:27:50.571Z,26.52
2018-02-20T06:30:18.124Z,26.65
2018-02-20T06:32:46.473Z,25.80
2018-02-20T06:35:14.778Z,27.25
2018-02-20T06:37:42.340Z,27.20
2018-02-20T06:40:09.874Z,27.40
2018-02-20T06:42:38.265Z,27.05
2018-02-20T06:45:05.813Z,25.70
2018-02-20T06:47:33.372Z,25.50
2018-02-20T06:50:02.428Z,27.15
2018-02-20T06:52:30.010Z,27.27
2018-02-20T06:54:58.334Z,27.37
2018-02-20T06:57:25.907Z,27.48
2018-02-20T06:59:53.452Z,25.10
2018-02-20T07:02:21.015Z,24.77
2018-02-20T07:04:48.553Z,26.15
2018-02-20T07:07:16.917Z,20.95
2018-02-20T07:09:45.226Z,17.27
2018-02-20T07:12:12.781Z,21.37
2018-02-20T07:14:40.317Z,22.30
2018-02-20T07:17:08.660Z,24.45
2018-02-20T07:19:36.216Z,23.77
2018-02-20T07:22:03.768Z,25.23
2018-02-20T07:24:31.296Z,21.73
2018-02-20T07:26:58.849Z,22.20
2018-02-20T07:29:26.381Z,20.73
2018-02-20T07:31:53.938Z,19.42
2018-02-20T07:34:21.481Z,18.45
2018-02-20T07:36:49.025Z,16.95
2018-02-20T07:39:16.607Z,14.10
2018-02-20T07:41:44.155Z,13.48
2018-02-20T07:44:11.721Z,13.15
2018-02-20T07:46:39.274Z,12.90
2018-02-20T07:49:06.841Z,12.15
2018-02-20T07:51:34.419Z,12.45
2018-02-20T07:54:01.991Z,12.15
2018-02-20T07:56:30.304Z,12.40
2018-02-20T07:58:57.862Z,13.25
2018-02-20T08:01:25.388Z,13.43
2018-02-20T08:03:53.695Z,11.45
2018-02-20T08:06:21.256Z,11.35
2018-02-20T08:08:48.918Z,11.90
2018-02-20T08:11:16.464Z,10.43
2018-02-20T08:13:44.001Z,10.60
2018-02-20T08:16:12.325Z,12.88
2018-02-20T08:18:39.891Z,11.55
2018-02-20T08:21:07.452Z,13.32
2018-02-20T08:23:34.988Z,11.25
2018-02-20T08:26:02.547Z,10.95
2018-02-20T08:28:30.097Z,11.27
2018-02-20T08:30:57.657Z,12.25
2018-02-20T08:33:26.058Z,10.55
2018-02-20T08:35:53.620Z,9.85
2018-02-20T08:38:21.160Z,10.90
2018-02-20T08:40:48.685Z,10.18
2018-02-20T08:43:16.242Z,10.38
2018-02-20T08:45:43.780Z,10.05
2018-02-20T08:48:11.380Z,12.07
2018-02-20T08:50:39.694Z,10.40
2018-02-20T08:53:07.301Z,11.10
2018-02-20T08:55:34.869Z,10.00
2018-02-20T08:58:02.428Z,9.00
2018-02-20T09:00:29.983Z,11.15
2018-02-20T09:02:58.448Z,10.43
2018-02-20T09:05:25.987Z,9.50
2018-02-20T09:07:53.577Z,10.80
2018-02-20T09:10:22.619Z,10.90
2018-02-20T09:12:51.213Z,11.75
2018-02-20T09:15:18.779Z,13.13
2018-02-20T09:17:46.340Z,9.65
2018-02-20T09:20:13.864Z,10.73
2018-02-20T09:22:42.178Z,10.30
2018-02-20T09:25:09.733Z,9.68
2018-02-20T09:27:37.280Z,11.00
2018-02-20T09:30:04.829Z,12.65
2018-02-20T09:32:32.385Z,10.85
2018-02-20T09:35:00.713Z,10.55
2018-02-20T09:37:28.250Z,10.68
2018-02-20T09:39:55.824Z,10.70
2018-02-20T09:42:23.369Z,10.30
2018-02-20T09:44:50.922Z,11.35
2018-02-20T09:47:18.471Z,11.00
2018-02-20T09:49:46.041Z,11.68
2018-02-20T09:52:13.601Z,10.45
2018-02-20T09:54:41.178Z,9.73
2018-02-20T09:57:08.728Z,11.25
2018-02-20T09:59:36.294Z,11.32
2018-02-20T10:02:03.848Z,10.55
2018-02-20T10:04:31.385Z,9.98
2018-02-20T10:06:58.941Z,10.25
2018-02-20T10:09:26.480Z,11.35
2018-02-20T10:11:54.089Z,11.23
2018-02-20T10:14:21.648Z,10.25
2018-02-20T10:16:49.964Z,10.75
2018-02-20T10:19:17.517Z,11.75
2018-02-20T10:21:45.080Z,11.05
2018-02-20T10:24:12.625Z,11.32
2018-02-20T10:26:40.213Z,10.88
2018-02-20T10:29:07.750Z,14.00
2018-02-20T10:31:35.325Z,12.23
2018-02-20T10:34:02.857Z,11.57
2018-02-20T10:36:30.442Z,12.98
2018-02-20T10:38:58.744Z,12.80
2018-02-20T10:41:27.077Z,11.75
2018-02-20T10:43:54.648Z,13.55
2018-02-20T10:46:22.189Z,12.85
2018-02-20T10:48:49.749Z,12.80
2018-02-20T10:51:17.308Z,13.13
2018-02-20T10:53:44.849Z,14.02
2018-02-20T10:56:12.414Z,12.10
2018-02-20T10:58:40.021Z,12.43
2018-02-20T11:01:07.593Z,13.50
2018-02-20T11:03:35.897Z,13.07
2018-02-20T11:06:03.477Z,13.62
2018-02-20T11:08:31.014Z,14.18
2018-02-20T11:10:58.561Z,14.77
2018-02-20T11:13:26.900Z,14.73
2018-02-20T11:15:54.440Z,14.77
2018-02-20T11:18:22.000Z,15.95
2018-02-20T11:20:50.308Z,15.25
2018-02-20T11:23:17.867Z,16.17
2018-02-20T11:25:45.433Z,15.98
2018-02-20T11:28:13.197Z,13.57
2018-02-20T11:30:40.764Z,15.05
2018-02-20T11:33:08.332Z,13.98
2018-02-20T11:35:35.889Z,13.52
2018-02-20T11:38:03.434Z,14.85
2018-02-20T11:40:31.061Z,15.25
2018-02-20T11:42:59.373Z,17.55
2018-02-20T11:45:26.937Z,19.10
2018-02-20T11:47:54.485Z,21.45
2018-02-20T11:50:22.051Z,22.90
2018-02-20T11:52:49.627Z,21.40
2018-02-20T11:55:17.169Z,20.45
2018-02-20T11:57:44.744Z,20.00
2018-02-20T12:00:12.297Z,22.70
2018-02-20T12:02:39.903Z,19.37
2018-02-20T12:05:07.448Z,17.65
2018-02-20T12:07:34.968Z,19.17
2018-02-20T12:10:02.538Z,17.20
2018-02-20T12:12:30.076Z,17.10
2018-02-20T12:14:58.392Z,16.35
2018-02-20T12:17:25.925Z,17.77
2018-02-20T12:19:53.488Z,15.90
2018-02-20T12:22:21.044Z,16.52
2018-02-20T12:24:48.614Z,16.10
2018-02-20T12:27:16.247Z,17.52
2018-02-20T12:29:44.546Z,16.77
2018-02-20T12:32:12.124Z,17.00
2018-02-20T12:34:39.671Z,18.35
2018-02-20T12:37:07.205Z,18.20
2018-02-20T12:39:35.534Z,13.93
2018-02-20T12:42:03.105Z,15.80
2018-02-20T12:44:30.658Z,13.75
2018-02-20T12:46:58.217Z,16.10
2018-02-20T12:49:25.789Z,15.40
2018-02-20T12:51:53.916Z,13.82
2018-02-20T12:54:21.458Z,14.50
2018-02-20T12:56:49.015Z,13.60
2018-02-20T12:59:17.425Z,13.70
2018-02-20T13:01:44.985Z,14.13
2018-02-20T13:04:12.542Z,16.12
2018-02-20T13:06:40.102Z,15.73
2018-02-20T13:09:07.658Z,15.77
2018-02-20T13:11:35.231Z,16.15
2018-02-20T13:14:02.784Z,15.82
2018-02-20T13:16:30.344Z,17.33
2018-02-20T13:18:57.887Z,19.62
2018-02-20T13:21:25.441Z,18.37
2018-02-20T13:23:53.748Z,16.40
2018-02-20T13:26:21.353Z,18.00
2018-02-20T13:28:48.916Z,16.55
2018-02-20T13:31:16.489Z,16.42
2018-02-20T13:33:44.801Z,16.75
2018-02-20T13:36:13.013Z,16.30
2018-02-20T13:38:40.564Z,17.42
2018-02-20T13:41:08.160Z,15.60
2018-02-20T13:43:36.464Z,16.62
2018-02-20T13:46:04.026Z,19.17
2018-02-20T13:48:31.565Z,17.00
2018-02-20T13:50:59.909Z,19.00
2018-02-20T13:53:27.441Z,18.37
2018-02-20T13:55:55.012Z,18.80
2018-02-20T13:58:22.556Z,19.35
2018-02-20T14:00:50.106Z,19.98
2018-02-20T14:03:17.661Z,20.55
2018-02-20T14:05:45.198Z,21.15
2018-02-20T14:08:13.516Z,21.55
2018-02-20T14:10:41.061Z,22.10
2018-02-20T14:13:08.621Z,19.27
2018-02-20T14:15:36.156Z,23.30
2018-02-20T14:18:04.474Z,21.08
2018-02-20T14:20:32.028Z,20.73
2018-02-20T14:22:59.601Z,21.08
2018-02-20T14:25:27.141Z,20.20
2018-02-20T14:27:55.480Z,21.10
2018-02-20T14:30:23.036Z,18.23
2018-02-20T14:32:51.343Z,21.83
2018-02-20T14:35:18.914Z,21.40
2018-02-20T14:37:47.333Z,20.67
2018-02-20T14:40:14.901Z,20.05
2018-02-20T14:42:42.447Z,21.87
2018-02-20T14:45:10.012Z,19.90
2018-02-20T14:47:37.553Z,20.75
2018-02-20T14:50:05.097Z,20.90
2018-02-20T14:52:32.628Z,21.75
2018-02-20T14:55:00.956Z,21.75
2018-02-20T14:57:28.503Z,20.52
2018-02-20T14:59:56.035Z,19.02
2018-02-20T15:02:23.576Z,21.12
2018-02-20T15:04:51.893Z,19.27
2018-02-20T15:07:19.437Z,18.17
2018-02-20T15:09:46.981Z,19.87
2018-02-20T15:12:14.550Z,22.13
2018-02-20T15:14:42.135Z,19.80
2018-02-20T15:17:09.668Z,18.95
2018-02-20T15:19:37.214Z,18.58
2018-02-20T15:22:05.569Z,19.83
2018-02-20T15:24:33.109Z,19.52
2018-02-20T15:27:00.685Z,20.08
2018-02-20T15:29:28.210Z,19.50
2018-02-20T15:31:55.756Z,19.58
2018-02-20T15:34:23.282Z,20.27
2018-02-20T15:36:51.638Z,20.10
2018-02-20T15:39:19.181Z,20.20
2018-02-20T15:41:46.733Z,19.92
2018-02-20T15:44:14.301Z,20.85
2018-02-20T15:46:41.833Z,19.10
2018-02-20T15:49:10.036Z,21.27
2018-02-20T15:51:37.580Z,17.25
2018-02-20T15:54:05.910Z,19.77
2018-02-20T15:56:33.461Z,18.15
2018-02-20T15:59:01.024Z,18.12
2018-02-20T16:01:28.586Z,19.75
2018-02-20T16:03:56.133Z,20.90
2018-02-20T16:06:23.681Z,21.85
2018-02-20T16:08:51.245Z,21.98
2018-02-20T16:11:18.821Z,21.95
2018-02-20T16:13:46.583Z,23.48
2018-02-20T16:16:14.931Z,20.62
2018-02-20T16:18:42.497Z,21.52
2018-02-20T16:21:10.097Z,21.00
2018-02-20T16:23:37.678Z,23.20
2018-02-20T16:26:05.987Z,24.15
2018-02-20T16:28:33.597Z,21.62
2018-02-20T16:31:01.155Z,21.40
2018-02-20T16:33:28.693Z,21.90
2018-02-20T16:35:56.317Z,20.23
2018-02-20T16:38:23.878Z,23.60
2018-02-20T16:40:51.433Z,19.45
2018-02-20T16:43:19.002Z,22.95
2018-02-20T16:45:46.676Z,21.00
2018-02-20T16:48:14.235Z,20.33
2018-02-20T16:50:41.793Z,21.67
2018-02-20T16:53:09.339Z,23.58
2018-02-20T16:55:36.908Z,20.65
2018-02-20T16:58:04.468Z,21.23
2018-02-20T17:00:32.087Z,21.73
2018-02-20T17:03:00.406Z,20.98
2018-02-20T17:05:27.972Z,20.25
2018-02-20T17:07:55.536Z,20.30
2018-02-20T17:10:23.110Z,20.55
2018-02-20T17:12:50.667Z,22.73
2018-02-20T17:15:18.209Z,21.87
2018-02-20T17:17:45.772Z,21.33
2018-02-20T17:20:13.317Z,20.62
2018-02-20T17:22:40.923Z,21.80
2018-02-20T17:25:08.510Z,22.80
2018-02-20T17:27:36.880Z,23.65
2018-02-20T17:30:04.431Z,22.45
2018-02-20T17:32:31.997Z,22.67
2018-02-20T17:34:59.532Z,21.58
2018-02-20T17:37:27.099Z,20.75
2018-02-20T17:39:54.655Z,21.87
2018-02-20T17:42:22.189Z,22.23
2018-02-20T17:44:49.761Z,19.92
2018-02-20T17:47:17.314Z,23.40
2018-02-20T17:49:44.888Z,20.20
2018-02-20T17:52:12.421Z,24.05
2018-02-20T17:54:40.012Z,22.45
2018-02-20T17:57:07.556Z,22.33
2018-02-20T17:59:35.132Z,23.20
2018-02-20T18:02:02.681Z,23.55
2018-02-20T18:04:30.215Z,23.17
2018-02-20T18:06:57.776Z,22.20
2018-02-20T18:09:25.349Z,20.27
2018-02-20T18:11:52.917Z,23.20
2018-02-20T18:14:20.454Z,21.40
2018-02-20T18:16:48.016Z,24.12
2018-02-20T18:19:15.602Z,22.10
2018-02-20T18:21:43.168Z,22.15
2018-02-20T18:24:10.738Z,21.90
2018-02-20T18:26:38.292Z,20.67
2018-02-20T18:29:05.852Z,25.67
2018-02-20T18:31:33.406Z,21.30
2018-02-20T18:34:00.981Z,22.33
2018-02-20T18:36:28.541Z,25.45
2018-02-20T18:38:56.109Z,22.83
2018-02-20T18:41:23.707Z,23.67
2018-02-20T18:43:52.022Z,23.73
2018-02-20T18:46:19.596Z,22.80
2018-02-20T18:48:47.231Z,22.60
2018-02-20T18:51:14.828Z,20.60
2018-02-20T18:53:42.376Z,22.42
2018-02-20T18:56:09.961Z,22.45
2018-02-20T18:58:37.505Z,22.52
2018-02-20T19:01:05.045Z,22.60
2018-02-20T19:03:32.604Z,22.62
2018-02-20T19:06:00.152Z,21.45
2018-02-20T19:08:27.713Z,22.92
2018-02-20T19:10:55.260Z,23.98
2018-02-20T19:13:22.832Z,23.20
2018-02-20T19:15:50.377Z,22.65
2018-02-20T19:18:17.922Z,21.12
2018-02-20T19:20:45.478Z,23.30
2018-02-20T19:23:13.805Z,21.83
2018-02-20T19:25:41.401Z,21.55
2018-02-20T19:28:09.746Z,21.40
2018-02-20T19:30:37.290Z,24.00
2018-02-20T19:33:04.884Z,21.52
2018-02-20T19:35:32.438Z,22.02
2018-02-20T19:37:59.996Z,23.95
2018-02-20T19:40:27.538Z,22.02
2018-02-20T19:42:55.273Z,21.83
2018-02-20T19:45:23.442Z,23.05
2018-02-20T19:47:51.009Z,22.02
2018-02-20T19:50:18.591Z,21.62
2018-02-20T19:52:46.170Z,21.25
2018-02-20T19:55:13.734Z,24.27
2018-02-20T19:57:41.300Z,24.98
2018-02-20T20:00:08.894Z,23.80
2018-02-20T20:02:36.431Z,21.85
2018-02-20T20:05:04.328Z,23.67
2018-02-20T20:07:31.884Z,22.98
2018-02-20T20:09:59.460Z,23.58
2018-02-20T20:12:26.996Z,23.73
2018-02-20T20:14:54.557Z,22.83
2018-02-20T20:17:22.132Z,22.30
2018-02-20T20:19:49.721Z,22.83
2018-02-20T20:22:18.480Z,24.75
2018-02-20T20:24:46.064Z,23.38
2018-02-20T20:27:18.469Z,22.13
2018-02-20T20:29:46.039Z,22.98
2018-02-20T20:32:13.601Z,24.67
2018-02-20T20:34:41.927Z,24.58
2018-02-20T20:37:09.490Z,24.65
2018-02-20T20:39:37.028Z,22.62
2018-02-20T20:42:04.624Z,21.80
2018-02-20T20:44:32.165Z,24.60
2018-02-20T20:46:59.777Z,24.55
2018-02-20T20:49:28.078Z,24.30
2018-02-20T20:51:55.860Z,26.92
2018-02-20T20:54:23.528Z,26.05
2018-02-20T20:56:51.588Z,22.80
2018-02-20T20:59:19.880Z,23.50
2018-02-20T21:01:47.934Z,27.98
2018-02-20T21:04:16.537Z,26.95
2018-02-20T21:06:44.920Z,25.85
2018-02-20T21:09:12.895Z,25.65
2018-02-20T21:11:40.935Z,23.92
2018-02-20T21:14:08.914Z,28.17
2018-02-20T21:16:36.974Z,26.50
2018-02-20T21:19:04.933Z,26.12
2018-02-20T21:21:32.906Z,27.73
2018-02-20T21:24:00.957Z,27.40
2018-02-20T21:26:29.689Z,28.80
2018-02-20T21:28:57.767Z,27.40
2018-02-20T21:31:26.073Z,30.15
2018-02-20T21:33:55.027Z,28.23
2018-02-20T21:36:22.560Z,30.12
2018-02-20T21:38:50.130Z,28.50
2018-02-20T21:41:17.684Z,28.95
2018-02-20T21:43:45.232Z,26.62
2018-02-20T21:46:13.588Z,29.20
2018-02-20T21:48:41.136Z,25.15
2018-02-20T21:51:08.694Z,27.65
2018-02-20T21:53:36.263Z,28.08
2018-02-20T21:56:03.873Z,27.75
2018-02-20T21:58:31.446Z,27.25
2018-02-20T22:00:58.993Z,28.35
2018-02-20T22:03:26.572Z,25.95
2018-02-20T22:05:54.161Z,27.70
2018-02-20T22:08:21.717Z,26.95
2018-02-20T22:10:49.281Z,29.80
2018-02-20T22:13:16.844Z,27.85
2018-02-20T22:15:44.387Z,25.98
2018-02-20T22:18:11.985Z,27.70
2018-02-20T22:20:40.293Z,30.02
2018-02-20T22:23:07.865Z,29.45
2018-02-20T22:25:35.404Z,30.50
2018-02-20T22:28:02.965Z,29.65
2018-02-20T22:30:30.496Z,29.05
2018-02-20T22:32:58.035Z,28.73
2018-02-20T22:35:25.596Z,28.62
2018-02-20T22:37:53.141Z,30.27
2018-02-20T22:40:20.719Z,28.73
2018-02-20T22:42:48.292Z,27.73
2018-02-20T22:45:16.608Z,30.55
2018-02-20T22:47:44.182Z,28.73
2018-02-20T22:50:11.761Z,29.27
2018-02-20T22:52:39.293Z,28.62
2018-02-20T22:55:06.849Z,32.85
2018-02-20T22:57:34.412Z,28.17
2018-02-20T23:00:01.978Z,31.17
2018-02-20T23:02:29.584Z,32.25
2018-02-20T23:04:57.185Z,31.75
2018-02-20T23:07:24.730Z,28.12
2018-02-20T23:09:53.055Z,28.40
2018-02-20T23:12:20.608Z,27.65
2018-02-20T23:14:48.164Z,28.10
2018-02-20T23:17:15.723Z,27.85
2018-02-20T23:19:43.268Z,26.90
2018-02-20T23:22:10.833Z,29.42
2018-02-20T23:24:38.380Z,29.60
2018-02-20T23:27:05.950Z,27.45
2018-02-20T23:29:33.489Z,26.95
2018-02-20T23:32:01.813Z,27.10
2018-02-20T23:34:30.213Z,30.40
2018-02-20T23:36:57.763Z,28.62
2018-02-20T23:39:25.317Z,29.30
2018-02-20T23:41:52.872Z,30.02
2018-02-20T23:44:20.406Z,30.98
2018-02-20T23:46:47.940Z,30.37
2018-02-20T23:49:16.271Z,29.35
2018-02-20T23:51:43.811Z,27.62
2018-02-20T23:54:11.374Z,29.92
2018-02-20T23:56:38.965Z,29.35
2018-02-20T23:59:06.524Z,30.25
